METAR AND TAF INFORMATION
METAR FOR ENEV
ADDS - METARS form results

(2210 UTC 20 February 2020)
Data provider http://aviationweather.gov/metar/data/
 
METAR text: ENEV 202150Z 11013KT CAVOK 01/M07 Q0979 RMK WIND 1400FT 10013KT
Conditions at: ENEV (EVENES (CIV/MIL), NO) observed 2150 UTC 20 February 2020
Temperature: 1.0°C (34°F)
Dewpoint: -7.0°C (19°F) [RH = 55%]
Pressure (altimeter): 28.91 inches Hg (979.0 mb)
Winds: from the ESE (110 degrees) at 15 MPH (13 knots; 6.7 m/s)
Visibility: 6 or more miles (10+ km)
Ceiling: ceiling and visibility are OK
Clouds: unknown
Weather: no significant weather observed at this time

METAR text: ENEV 202120Z 11014KT CAVOK 00/M08 Q0980 RMK WIND 1400FT 11016KT
Conditions at: ENEV (EVENES (CIV/MIL), NO) observed 2120 UTC 20 February 2020
Temperature: 0.0°C (32°F)
Dewpoint: -8.0°C (18°F) [RH = 55%]
Pressure (altimeter): 28.94 inches Hg (980.0 mb)
Winds: from the ESE (110 degrees) at 16 MPH (14 knots; 7.2 m/s)
Visibility: 6 or more miles (10+ km)
Ceiling: ceiling and visibility are OK
Clouds: unknown
Weather: no significant weather observed at this time

Forecast for: ENEV (EVENES (CIV/MIL), NO)
Text: TAF ENEV 202000Z 2021/2024 11008KT 9999 FEW040
Forecast period: 2100 UTC 20 February 2020 to 0000 UTC 21 February 2020
Forecast type: FROM: standard forecast or significant change
Winds: from the ESE (110 degrees) at 9 MPH (8 knots; 4.1 m/s)
Visibility: 6 or more miles 10+ km)
Ceiling: at least 12,000 feet AGL
Clouds: few clouds at 4000 feet AGL
Weather: no significant weather forecast for this period
Text: TEMPO 2021/2024 11015G25KT 4000 -SN VV014
Forecast period: 2100 UTC 20 February 2020 to 0000 UTC 21 February 2020
Forecast type: TEMPORARY: The following changes expected for less than half the time period
Winds: from the ESE (110 degrees) at 17 MPH (15 knots; 7.7 m/s)
gusting to 29 MPH (25 knots; 12.9 m/s)
Visibility: 2.49 miles (4.01 km)
Ceiling: indefinite ceiling with vertical visibility of 1400 feet AGL
Clouds: obscured sky
Weather: -SN  (light snow)

 AIRPORT MAP

 RUNWAY INFORMATION
Runway 17 Runway length 9236 ft Runway width 148 ft
Runway elevation 81 ft Runway displaced threshold 302 ft Runway heading 178
Runway 35 Runway length 9236 ft Runway width 148 ft
Runway elevation 80 ft Runway displaced threshold 214 ft Runway heading 358

 AIRPORT FREQUENCIES
Type ACC Name BODO CON Frequency 126.45 MHZ
Type ATIS Name ATIS Frequency 126.025 MHZ
Type TWR Name TWR Frequency 118 MHZ

 AIRPORT NEAR NAVIGATION AIDS
Type VOR-DME Name Evenes Frequency 117350 KHZ
Type TACAN Name Evenes Frequency 134000 KHZ
Type NDB Name Odden Frequency 365 KHZ



Powered by Virtual Airlines Manager [v2.6.2]